Time;durP1;ratioP1;P1;durP2;ratioP2;P2;SDS_P1;SDS_P2;PMS_P1;PMS_P2;Temp;Humidity;BMP_temperature;BMP_pressure;BME280_temperature;BME280_humidity;BME280_pressure;Samples;Min_cycle;Max_cycle;Signal;HPM_P1;HPM_P2
2022/08/12 00:44:26;;;;;;;1.88;1.42;;;28.20;42.00;;;;;;4982227;28;20045;-81
2022/08/12 00:46:58;;;;;;;1.42;1.20;;;28.10;42.00;;;;;;4979451;28;20104;-81
2022/08/12 00:49:27;;;;;;;1.27;1.17;;;28.10;42.10;;;;;;5013849;28;20034;-81
2022/08/12 00:52:05;;;;;;;1.52;1.20;;;28.10;42.10;;;;;;4979766;28;20033;-82
2022/08/12 00:54:37;;;;;;;1.20;1.10;;;28.10;42.10;;;;;;4997100;28;20117;-80
2022/08/12 00:57:25;;;;;;;1.58;1.35;;;28.00;42.20;;;;;;4999309;28;20077;-81
2022/08/12 01:00:07;;;;;;;1.35;1.25;;;28.00;42.20;;;;;;4983250;28;20125;-81
2022/08/12 01:02:38;;;;;;;1.40;1.20;;;28.00;42.20;;;;;;5017525;28;20490;-81
2022/08/12 01:13:38;;;;;;;1.98;1.30;;;27.90;42.20;;;;;;5016508;28;20091;-81
2022/08/12 01:16:06;;;;;;;1.20;1.10;;;27.80;42.20;;;;;;4998708;28;20117;-82
2022/08/12 01:18:37;;;;;;;1.45;1.20;;;27.80;42.30;;;;;;4999048;28;20037;-81
2022/08/12 01:21:16;;;;;;;2.13;1.38;;;27.80;42.30;;;;;;5016887;28;20029;-80
2022/08/12 01:24:05;;;;;;;1.50;1.40;;;27.80;42.40;;;;;;4998880;28;20033;-81
2022/08/12 01:26:33;;;;;;;1.23;1.08;;;27.80;42.50;;;;;;5016022;28;20104;-81
2022/08/12 01:29:02;;;;;;;1.45;1.33;;;27.80;42.50;;;;;;4998835;28;20038;-80
2022/08/12 01:31:28;;;;;;;1.25;1.15;;;27.70;42.50;;;;;;4999032;28;20034;-80
2022/08/12 01:34:18;;;;;;;1.40;1.30;;;27.70;42.50;;;;;;5016575;28;20041;-81
2022/08/12 01:36:49;;;;;;;1.60;1.20;;;27.60;42.50;;;;;;4998663;28;20030;-81
2022/08/12 01:39:16;;;;;;;1.40;1.30;;;27.60;42.50;;;;;;4999245;28;20038;-81
2022/08/12 01:41:55;;;;;;;1.65;1.35;;;27.60;42.50;;;;;;4998768;28;20471;-81
2022/08/12 01:44:23;;;;;;;2.20;1.27;;;27.60;42.60;;;;;;5015722;28;20105;-81
2022/08/12 01:47:21;;;;;;;2.65;1.38;;;27.50;42.50;;;;;;4994485;28;20062;-81
2022/08/12 01:50:04;;;;;;;1.70;1.27;;;27.50;42.70;;;;;;4995730;28;20092;-81
2022/08/12 01:52:43;;;;;;;1.42;1.30;;;27.50;42.70;;;;;;4995150;28;20145;-82
2022/08/12 01:55:14;;;;;;;1.20;1.10;;;27.40;42.60;;;;;;4994793;28;20031;-82
2022/08/12 01:58:07;;;;;;;1.45;1.30;;;27.40;42.70;;;;;;4994888;28;20062;-81
2022/08/12 02:00:50;;;;;;;1.23;1.13;;;27.40;42.70;;;;;;4979683;28;20054;-81
2022/08/12 02:03:25;;;;;;;1.55;1.27;;;27.40;42.70;;;;;;4998812;28;20040;-82
2022/08/12 02:12:20;;;;;;;1.23;1.13;;;27.30;42.80;;;;;;4995329;28;20031;-83
2022/08/12 02:14:50;;;;;;;2.03;1.48;;;27.20;42.90;;;;;;4963113;28;20026;-81
2022/08/12 02:17:28;;;;;;;1.30;1.20;;;27.20;42.90;;;;;;4978318;28;20053;-80
2022/08/12 02:20:20;;;;;;;1.88;1.33;;;27.20;43.00;;;;;;4995344;28;20061;-82
2022/08/12 02:22:47;;;;;;;1.63;1.50;;;27.10;42.90;;;;;;5004844;28;20045;-82
2022/08/12 02:25:34;;;;;;;1.40;1.30;;;27.10;42.90;;;;;;5007242;28;20084;-82
2022/08/12 02:27:59;;;;;;;1.40;1.30;;;27.10;43.00;;;;;;5008030;28;20034;-82
2022/08/12 02:30:30;;;;;;;1.85;1.40;;;27.10;43.00;;;;;;5006086;28;20420;-82
2022/08/12 02:33:00;;;;;;;2.08;1.42;;;27.10;43.10;;;;;;5006286;28;20044;-81
2022/08/12 02:35:29;;;;;;;2.38;1.58;;;27.10;43.10;;;;;;4991169;28;20093;-81
2022/08/12 02:38:00;;;;;;;2.35;1.27;;;27.00;43.10;;;;;;4997471;28;20114;-80
2022/08/12 02:40:31;;;;;;;1.80;1.38;;;27.00;43.10;;;;;;4978922;28;20509;-81
2022/08/12 02:43:06;;;;;;;2.50;1.30;;;27.00;43.20;;;;;;4996057;28;20027;-80
2022/08/12 02:46:05;;;;;;;1.85;1.30;;;26.90;43.20;;;;;;4961907;28;20033;-80
2022/08/12 02:48:49;;;;;;;1.45;1.30;;;26.90;43.30;;;;;;4993249;28;20091;-81
2022/08/12 02:51:18;;;;;;;2.22;1.40;;;26.90;43.20;;;;;;4997732;28;20487;-81
2022/08/12 02:53:44;;;;;;;1.95;1.42;;;26.90;43.30;;;;;;4997330;28;20120;-81
2022/08/12 02:56:11;;;;;;;1.65;1.40;;;26.80;43.20;;;;;;4981911;28;20034;-80
2022/08/12 02:58:39;;;;;;;1.52;1.40;;;26.80;43.30;;;;;;4981240;28;20030;-81
2022/08/12 03:01:08;;;;;;;2.40;1.25;;;26.80;43.30;;;;;;5014633;28;20252;-81
2022/08/12 03:03:36;;;;;;;1.73;1.48;;;26.80;43.40;;;;;;4980666;28;20141;-80
2022/08/12 03:06:05;;;;;;;1.58;1.33;;;26.70;43.40;;;;;;4980926;28;20053;-81
2022/08/12 03:08:36;;;;;;;2.35;1.67;;;26.70;43.40;;;;;;4996718;28;20041;-81
2022/08/12 03:11:08;;;;;;;2.13;1.35;;;26.70;43.50;;;;;;4996946;28;20088;-80
2022/08/12 03:13:38;;;;;;;3.00;1.60;;;26.60;43.40;;;;;;5014637;28;20431;-80
2022/08/12 03:16:06;;;;;;;1.60;1.30;;;26.60;43.50;;;;;;4981803;28;20057;-80
2022/08/12 03:18:33;;;;;;;1.50;1.40;;;26.60;43.50;;;;;;4996039;28;20029;-81
2022/08/12 03:21:00;;;;;;;1.77;1.48;;;26.60;43.50;;;;;;4997278;28;20045;-80
2022/08/12 03:23:29;;;;;;;1.60;1.50;;;26.50;43.60;;;;;;4996554;28;20506;-80
2022/08/12 03:25:55;;;;;;;1.85;1.35;;;26.50;43.60;;;;;;4981121;28;20029;-80
2022/08/12 03:31:08;;;;;;;2.17;1.50;;;26.50;43.70;;;;;;4997384;28;20060;-81
2022/08/12 03:33:39;;;;;;;2.15;1.67;;;26.40;43.70;;;;;;5013807;28;20077;-80
2022/08/12 03:36:08;;;;;;;1.60;1.50;;;26.40;43.70;;;;;;4996499;28;20132;-81
2022/08/12 03:38:37;;;;;;;1.90;1.38;;;26.40;44.00;;;;;;4996253;28;20116;-81
2022/08/12 03:41:34;;;;;;;1.77;1.45;;;26.40;43.80;;;;;;4996336;28;20382;-80
2022/08/12 04:01:13;;;;;;;1.67;1.42;;;26.10;43.90;;;;;;4993513;28;20149;-80
2022/08/12 04:03:51;;;;;;;2.47;1.65;;;26.10;44.00;;;;;;4976795;28;20152;-81
2022/08/12 04:06:25;;;;;;;2.03;1.38;;;26.10;44.00;;;;;;4992668;28;20388;-81
2022/08/12 04:08:56;;;;;;;1.40;1.30;;;26.00;44.10;;;;;;4994202;28;20465;-81
2022/08/12 04:14:19;;;;;;;1.60;1.50;;;26.00;44.10;;;;;;4992992;28;20214;-81
2022/08/12 04:16:47;;;;;;;1.50;1.40;;;26.00;44.10;;;;;;4976774;28;20039;-80
2022/08/12 04:19:15;;;;;;;1.33;1.23;;;26.00;44.20;;;;;;4994190;28;20064;-80
2022/08/12 04:21:43;;;;;;;2.03;1.60;;;26.00;44.20;;;;;;4976595;28;20026;-81
2022/08/12 04:24:10;;;;;;;1.50;1.40;;;25.90;44.10;;;;;;4960176;28;20034;-82
2022/08/12 04:26:38;;;;;;;1.55;1.35;;;26.00;44.30;;;;;;4978026;28;20035;-81
2022/08/12 04:29:05;;;;;;;2.13;1.58;;;26.00;44.30;;;;;;4993546;28;20035;-82
2022/08/12 04:31:34;;;;;;;2.10;1.48;;;25.90;44.30;;;;;;4980457;28;20046;-81
2022/08/12 04:34:02;;;;;;;1.48;1.38;;;25.90;44.30;;;;;;4980660;28;20038;-81
2022/08/12 04:36:33;;;;;;;1.98;1.45;;;25.80;44.30;;;;;;4996303;28;20037;-82
2022/08/12 04:39:02;;;;;;;2.05;1.50;;;25.80;44.30;;;;;;4998653;28;20119;-82
2022/08/12 04:41:30;;;;;;;1.65;1.50;;;25.80;44.30;;;;;;4979718;28;20119;-81
2022/08/12 04:43:56;;;;;;;1.35;1.25;;;25.70;44.30;;;;;;4997784;28;20035;-81
2022/08/12 04:46:23;;;;;;;1.52;1.42;;;25.70;44.30;;;;;;5003804;28;20077;-81
2022/08/12 04:48:54;;;;;;;1.60;1.50;;;25.70;44.30;;;;;;4999784;28;20046;-80
2022/08/12 04:51:22;;;;;;;1.70;1.50;;;25.60;44.30;;;;;;4983058;28;20033;-80
2022/08/12 04:53:48;;;;;;;1.77;1.38;;;25.70;44.40;;;;;;4999177;28;20037;-81
2022/08/12 04:56:15;;;;;;;1.55;1.45;;;25.60;44.40;;;;;;5018577;28;20037;-81
2022/08/12 04:58:43;;;;;;;2.03;1.67;;;25.60;44.40;;;;;;5018720;28;20080;-81
2022/08/12 05:01:09;;;;;;;1.42;1.33;;;25.60;44.40;;;;;;5001157;28;20030;-80
2022/08/12 05:03:36;;;;;;;1.63;1.45;;;25.60;44.50;;;;;;5001536;28;20030;-80
2022/08/12 05:06:03;;;;;;;1.90;1.60;;;25.60;44.50;;;;;;4984316;28;20478;-80
2022/08/12 05:08:29;;;;;;;2.03;1.50;;;25.60;44.50;;;;;;4999459;28;20200;-81
2022/08/12 05:10:57;;;;;;;1.40;1.30;;;25.50;44.50;;;;;;4999461;28;20026;-81
2022/08/12 05:13:28;;;;;;;2.08;1.60;;;25.50;44.50;;;;;;4999025;28;20026;-80
2022/08/12 05:15:53;;;;;;;2.03;1.65;;;25.50;44.60;;;;;;4998673;28;20033;-81
2022/08/12 05:18:20;;;;;;;1.70;1.40;;;25.40;44.50;;;;;;4982718;28;20030;-81
2022/08/12 05:20:47;;;;;;;2.55;1.67;;;25.50;44.60;;;;;;4982507;28;20394;-80
2022/08/12 05:23:14;;;;;;;1.65;1.52;;;25.40;44.60;;;;;;5017015;28;20028;-79
2022/08/12 05:25:41;;;;;;;1.48;1.38;;;25.40;44.60;;;;;;4998626;28;20030;-80
2022/08/12 05:28:08;;;;;;;1.45;1.35;;;25.40;44.60;;;;;;5000239;28;20030;-80
2022/08/12 05:30:35;;;;;;;1.90;1.52;;;25.40;44.70;;;;;;4985564;28;20058;-79
2022/08/12 05:33:04;;;;;;;1.90;1.40;;;25.40;44.70;;;;;;4983879;28;20105;-80
2022/08/12 05:35:38;;;;;;;2.55;1.80;;;25.30;44.70;;;;;;4998703;28;20044;-81
2022/08/12 05:41:19;;;;;;;1.60;1.33;;;25.30;44.80;;;;;;5000565;28;20117;-81
2022/08/12 05:43:59;;;;;;;1.63;1.52;;;25.30;44.70;;;;;;4983285;28;20058;-82
2022/08/12 05:46:27;;;;;;;2.65;1.60;;;25.30;44.80;;;;;;4982132;28;20050;-81
2022/08/12 05:48:54;;;;;;;1.90;1.48;;;25.20;44.70;;;;;;4998290;28;20034;-80
2022/08/12 05:51:23;;;;;;;1.65;1.55;;;25.20;44.80;;;;;;5015824;28;20030;-80
2022/08/12 05:53:51;;;;;;;2.60;1.55;;;25.20;44.80;;;;;;5015930;28;20022;-81
2022/08/12 05:56:25;;;;;;;2.10;1.60;;;25.20;44.90;;;;;;4998500;28;20038;-79
2022/08/12 05:58:52;;;;;;;1.70;1.60;;;25.20;44.90;;;;;;4998283;28;20049;-79
2022/08/12 06:01:19;;;;;;;1.80;1.65;;;25.20;44.90;;;;;;4998131;28;20030;-81
2022/08/12 06:03:45;;;;;;;1.98;1.60;;;25.20;44.90;;;;;;5016453;28;20074;-82
2022/08/12 06:06:14;;;;;;;1.95;1.42;;;25.10;44.80;;;;;;4998180;28;20033;-82
2022/08/12 06:08:43;;;;;;;1.60;1.50;;;25.20;45.00;;;;;;4998124;28;20351;-82
2022/08/12 06:11:09;;;;;;;2.03;1.60;;;25.10;44.90;;;;;;4998240;28;20029;-83
2022/08/12 06:13:38;;;;;;;2.42;1.90;;;25.20;45.00;;;;;;5015048;28;20030;-79
2022/08/12 06:16:09;;;;;;;1.63;1.52;;;25.10;45.00;;;;;;4997600;28;20034;-79
2022/08/12 06:18:38;;;;;;;2.03;1.67;;;25.10;45.00;;;;;;4997822;28;20139;-80
2022/08/12 06:21:09;;;;;;;2.13;1.67;;;25.10;45.00;;;;;;5015048;28;20025;-82
2022/08/12 06:23:35;;;;;;;2.60;1.60;;;25.10;45.00;;;;;;4981526;28;20034;-80
2022/08/12 06:26:02;;;;;;;2.40;1.75;;;25.10;45.00;;;;;;4997227;28;20026;-79
2022/08/12 06:28:29;;;;;;;1.60;1.40;;;25.10;45.10;;;;;;5015039;28;20113;-80
2022/08/12 06:30:57;;;;;;;1.60;1.50;;;25.10;45.10;;;;;;4997166;28;20097;-80
2022/08/12 06:33:23;;;;;;;3.13;1.70;;;25.10;45.10;;;;;;5015103;28;20029;-79
2022/08/12 06:35:49;;;;;;;1.98;1.70;;;25.10;45.10;;;;;;5015004;28;20088;-81
2022/08/12 06:38:21;;;;;;;1.95;1.50;;;25.10;45.20;;;;;;4997500;28;20487;-80
2022/08/12 06:43:36;;;;;;;1.85;1.60;;;25.10;45.20;;;;;;5014331;28;20109;-80
2022/08/12 06:46:03;;;;;;;2.92;1.80;;;25.10;45.20;;;;;;4980629;28;20491;-80
2022/08/12 06:48:30;;;;;;;2.65;1.92;;;25.10;45.30;;;;;;4997739;28;20121;-82
2022/08/12 06:50:57;;;;;;;2.33;1.48;;;25.10;45.30;;;;;;4996841;28;20063;-79
2022/08/12 06:53:25;;;;;;;2.15;1.67;;;25.10;45.30;;;;;;4996952;28;20030;-83
2022/08/12 06:55:55;;;;;;;1.90;1.70;;;25.10;45.30;;;;;;4980709;28;20014;-80
2022/08/12 06:58:23;;;;;;;2.40;1.77;;;25.10;45.30;;;;;;5014577;28;20030;-81
2022/08/12 07:00:50;;;;;;;2.20;1.70;;;25.10;45.40;;;;;;4996798;28;20017;-80
2022/08/12 07:03:21;;;;;;;2.15;1.83;;;25.10;45.40;;;;;;5014047;28;20030;-83
2022/08/12 07:05:47;;;;;;;2.28;1.80;;;25.00;45.40;;;;;;4981919;28;20452;-84
2022/08/12 07:08:16;;;;;;;2.35;1.65;;;25.10;45.40;;;;;;4980382;28;20022;-83
2022/08/12 07:10:46;;;;;;;2.92;1.73;;;25.10;45.50;;;;;;4981379;28;20033;-84
2022/08/12 07:13:11;;;;;;;2.42;1.90;;;25.10;45.50;;;;;;4996749;28;20065;-83
2022/08/12 07:15:38;;;;;;;2.42;1.77;;;25.10;45.40;;;;;;4980276;28;20096;-84
2022/08/12 07:18:10;;;;;;;1.90;1.58;;;25.10;45.50;;;;;;4980575;28;20038;-80
2022/08/12 07:20:43;;;;;;;2.00;1.58;;;25.10;45.50;;;;;;4980670;28;20052;-83
2022/08/12 07:23:10;;;;;;;2.03;1.80;;;25.10;45.60;;;;;;4996570;28;20049;-82
2022/08/12 07:25:38;;;;;;;2.08;1.65;;;25.10;45.50;;;;;;4980130;28;20037;-78
2022/08/12 07:28:22;;;;;;;1.80;1.58;;;25.10;45.60;;;;;;4980553;28;20029;-79
2022/08/12 07:30:49;;;;;;;1.95;1.67;;;25.10;45.60;;;;;;4997312;28;20048;-81
2022/08/12 07:33:16;;;;;;;1.95;1.67;;;25.10;45.50;;;;;;4979978;28;20030;-79
2022/08/12 07:35:46;;;;;;;2.72;1.80;;;25.10;45.60;;;;;;4980036;28;20057;-79
2022/08/12 07:38:24;;;;;;;1.73;1.60;;;25.10;45.60;;;;;;4996386;28;20057;-79
2022/08/12 07:40:52;;;;;;;2.10;1.55;;;25.10;45.70;;;;;;4996038;28;20053;-79
2022/08/12 07:43:18;;;;;;;1.95;1.77;;;25.10;45.70;;;;;;5013445;28;20486;-81
2022/08/12 07:45:44;;;;;;;4.05;1.70;;;25.10;45.70;;;;;;4996073;28;20034;-82
2022/08/12 07:48:10;;;;;;;1.85;1.63;;;25.20;45.70;;;;;;4979855;28;20061;-82
2022/08/12 07:50:36;;;;;;;1.80;1.58;;;25.20;45.70;;;;;;4979652;28;20030;-81
2022/08/12 07:53:02;;;;;;;2.17;1.73;;;25.20;45.70;;;;;;4979754;28;20033;-81
2022/08/12 07:55:28;;;;;;;1.98;1.58;;;25.20;45.70;;;;;;4996581;28;20124;-79
2022/08/12 07:57:58;;;;;;;2.08;1.60;;;25.20;45.70;;;;;;4996512;28;20022;-81
2022/08/12 08:00:30;;;;;;;2.10;1.70;;;25.30;45.80;;;;;;4964213;28;20030;-80
2022/08/12 08:02:57;;;;;;;1.77;1.60;;;25.30;45.80;;;;;;4995919;28;20065;-81
2022/08/12 08:05:25;;;;;;;2.10;1.83;;;25.30;45.80;;;;;;4995434;28;20117;-81
2022/08/12 08:07:52;;;;;;;2.53;1.80;;;25.30;45.80;;;;;;4996023;28;20026;-82
2022/08/12 08:10:19;;;;;;;2.22;1.73;;;25.30;45.70;;;;;;4979249;28;20069;-82
2022/08/12 08:13:03;;;;;;;2.38;1.85;;;25.40;45.80;;;;;;5013510;28;20034;-81
2022/08/12 08:15:32;;;;;;;2.67;1.80;;;25.40;45.70;;;;;;4995666;28;20068;-82
2022/08/12 08:18:03;;;;;;;2.45;1.85;;;25.40;45.70;;;;;;5013978;28;20029;-81
2022/08/12 08:20:47;;;;;;;1.90;1.70;;;25.50;45.70;;;;;;4996282;28;20038;-84
2022/08/12 08:23:15;;;;;;;2.13;1.60;;;25.60;45.70;;;;;;4995576;28;20387;-82
2022/08/12 08:25:42;;;;;;;2.08;1.60;;;25.60;45.60;;;;;;4995918;28;20359;-81
2022/08/12 08:28:11;;;;;;;2.10;1.83;;;25.60;45.50;;;;;;4995739;28;20026;-81
2022/08/12 08:30:44;;;;;;;1.83;1.42;;;25.70;45.60;;;;;;5013679;28;20379;-82
2022/08/12 08:33:12;;;;;;;1.75;1.65;;;25.80;45.50;;;;;;4979890;28;20033;-81
2022/08/12 08:35:44;;;;;;;2.28;2.00;;;25.90;45.50;;;;;;4980091;28;20030;-82
2022/08/12 08:38:13;;;;;;;1.90;1.70;;;25.90;45.40;;;;;;4996429;28;20041;-82
2022/08/12 08:43:26;;;;;;;2.25;1.75;;;26.00;45.30;;;;;;5012900;28;20029;-82
2022/08/12 08:45:53;;;;;;;2.10;1.60;;;26.10;45.20;;;;;;4995649;28;20041;-82
2022/08/12 08:48:20;;;;;;;2.75;1.60;;;26.20;45.30;;;;;;4995122;28;20455;-81
2022/08/12 08:50:46;;;;;;;1.85;1.67;;;26.30;45.20;;;;;;4980175;28;20033;-82
2022/08/12 08:53:12;;;;;;;1.92;1.50;;;26.40;45.20;;;;;;4979497;28;20484;-83
2022/08/12 08:55:39;;;;;;;2.03;1.55;;;26.40;45.10;;;;;;4995295;28;20034;-83
2022/08/12 08:58:05;;;;;;;1.77;1.60;;;26.50;45.10;;;;;;4995578;28;20038;-83
2022/08/12 09:00:30;;;;;;;2.38;1.73;;;26.50;45.00;;;;;;5013121;28;20343;-82
2022/08/12 09:02:56;;;;;;;1.75;1.58;;;26.70;45.10;;;;;;4978884;28;20038;-81
2022/08/12 09:05:23;;;;;;;2.17;1.83;;;26.70;45.00;;;;;;4995562;28;20022;-82
2022/08/12 09:07:49;;;;;;;1.70;1.60;;;26.80;45.00;;;;;;4979109;28;20052;-82
2022/08/12 09:10:20;;;;;;;1.60;1.50;;;26.90;45.00;;;;;;4994905;28;20160;-82
2022/08/12 09:15:32;;;;;;;2.03;1.52;;;27.10;45.00;;;;;;5013102;28;20030;-82
2022/08/12 09:17:58;;;;;;;1.60;1.50;;;27.20;45.00;;;;;;4997990;28;20151;-80
2022/08/12 09:20:26;;;;;;;2.00;1.63;;;27.30;45.00;;;;;;5016602;28;20605;-83
2022/08/12 09:22:53;;;;;;;1.52;1.42;;;27.40;45.00;;;;;;4998950;28;20120;-82
2022/08/12 09:25:21;;;;;;;2.53;1.60;;;27.50;45.00;;;;;;5016500;28;20084;-84
2022/08/12 09:27:47;;;;;;;2.17;1.85;;;27.60;45.00;;;;;;4999843;28;20105;-83
2022/08/12 09:30:14;;;;;;;2.42;1.70;;;27.70;45.00;;;;;;4982796;28;20120;-83
2022/08/12 09:32:50;;;;;;;1.63;1.50;;;27.80;45.00;;;;;;4998957;28;20075;-84
2022/08/12 09:35:32;;;;;;;1.77;1.50;;;27.90;45.00;;;;;;4998967;28;20037;-84
2022/08/12 09:38:00;;;;;;;2.67;1.63;;;27.90;44.90;;;;;;4998675;28;20034;-83
2022/08/12 09:40:28;;;;;;;1.85;1.48;;;28.10;45.00;;;;;;4982359;28;20482;-84
2022/08/12 09:45:40;;;;;;;1.63;1.40;;;28.30;45.00;;;;;;4998564;28;20448;-83
2022/08/12 09:48:07;;;;;;;1.55;1.30;;;28.40;44.90;;;;;;4998541;28;20034;-84
2022/08/12 09:50:34;;;;;;;1.92;1.50;;;28.50;45.00;;;;;;4998399;28;20100;-84
2022/08/12 09:53:09;;;;;;;3.72;1.60;;;28.60;45.00;;;;;;4982265;28;20028;-84
2022/08/12 09:55:36;;;;;;;1.70;1.60;;;28.70;45.00;;;;;;5015841;28;20026;-84
2022/08/12 09:58:04;;;;;;;1.95;1.48;;;28.80;44.90;;;;;;4982613;28;20034;-83
2022/08/12 10:00:33;;;;;;;1.63;1.52;;;28.90;45.00;;;;;;5015730;28;20038;-83
2022/08/12 10:03:04;;;;;;;1.50;1.40;;;29.00;44.90;;;;;;4997852;28;20033;-83
2022/08/12 10:05:32;;;;;;;1.45;1.30;;;29.20;45.00;;;;;;4997815;28;20029;-82
2022/08/12 10:07:59;;;;;;;2.00;1.60;;;29.30;45.00;;;;;;5014976;28;20030;-85
2022/08/12 10:10:27;;;;;;;2.97;2.03;;;29.40;45.70;;;;;;4997753;28;20044;-81
2022/08/12 10:15:43;;;;;;;1.40;1.27;;;29.50;44.90;;;;;;4998520;28;20029;-83
2022/08/12 10:18:12;;;;;;;1.80;1.45;;;29.70;44.90;;;;;;4998819;28;20056;-83
2022/08/12 10:20:39;;;;;;;1.83;1.60;;;29.80;44.90;;;;;;4997525;28;20061;-81
2022/08/12 10:23:06;;;;;;;1.42;1.33;;;29.90;44.80;;;;;;4981697;28;20026;-83
2022/08/12 10:31:02;;;;;;;1.60;1.50;;;30.20;44.50;;;;;;4984736;28;20041;-83
2022/08/12 10:33:29;;;;;;;2.00;1.33;;;30.30;44.40;;;;;;4997579;28;20026;-83
2022/08/12 10:35:57;;;;;;;2.10;1.40;;;30.30;44.20;;;;;;4981478;28;20045;-83
2022/08/12 10:38:23;;;;;;;1.63;1.48;;;30.40;44.20;;;;;;4998090;28;20033;-83
2022/08/12 10:43:42;;;;;;;1.40;1.30;;;30.60;44.00;;;;;;5018851;28;20077;-82
2022/08/12 10:46:16;;;;;;;2.08;1.55;;;30.70;44.00;;;;;;5003053;28;20046;-82
2022/08/12 10:48:46;;;;;;;1.42;1.30;;;30.80;43.90;;;;;;5001622;28;20505;-82
2022/08/12 10:51:16;;;;;;;1.50;1.40;;;30.90;43.90;;;;;;4986799;28;20470;-82
2022/08/12 10:53:42;;;;;;;1.60;1.50;;;31.00;43.80;;;;;;4984710;28;20030;-82
2022/08/12 10:56:10;;;;;;;1.60;1.40;;;31.10;43.80;;;;;;4983270;28;20088;-82
2022/08/12 10:58:37;;;;;;;2.55;1.50;;;31.20;43.70;;;;;;4996944;28;20040;-82
2022/08/12 11:01:09;;;;;;;1.20;1.10;;;31.20;43.50;;;;;;4997351;28;20037;-83
2022/08/12 11:03:36;;;;;;;1.75;1.60;;;31.40;43.60;;;;;;4997285;28;20030;-82
2022/08/12 11:06:06;;;;;;;1.60;1.50;;;31.40;43.40;;;;;;4996983;28;20026;-82
2022/08/12 11:08:34;;;;;;;2.90;1.50;;;31.40;43.30;;;;;;4997137;28;20138;-82
2022/08/12 11:11:01;;;;;;;1.55;1.40;;;31.50;43.20;;;;;;5014265;28;20018;-82
2022/08/12 11:13:26;;;;;;;2.28;1.60;;;31.60;43.20;;;;;;5014039;28;20034;-82
2022/08/12 11:15:54;;;;;;;2.10;1.60;;;31.70;43.20;;;;;;4996499;28;20088;-82
2022/08/12 11:18:21;;;;;;;2.03;1.40;;;31.70;43.20;;;;;;4996829;28;20385;-81
2022/08/12 11:20:47;;;;;;;2.88;1.50;;;31.80;43.20;;;;;;4997088;28;20028;-81
2022/08/12 11:23:14;;;;;;;2.05;1.40;;;31.80;43.10;;;;;;5014408;28;20117;-81
2022/08/12 11:25:43;;;;;;;2.35;1.70;;;31.90;43.30;;;;;;4996324;28;20061;-83
2022/08/12 11:28:09;;;;;;;1.67;1.58;;;31.90;43.40;;;;;;5013905;28;20175;-83
2022/08/12 11:30:35;;;;;;;1.52;1.38;;;32.00;43.40;;;;;;4996430;28;20029;-83
2022/08/12 11:33:00;;;;;;;2.08;1.60;;;32.00;43.40;;;;;;4980877;28;20124;-83
2022/08/12 11:35:26;;;;;;;2.30;1.55;;;32.10;43.40;;;;;;5014203;28;20026;-83
2022/08/12 11:37:53;;;;;;;1.63;1.50;;;32.10;43.50;;;;;;4980946;28;20037;-84
2022/08/12 11:40:18;;;;;;;2.88;1.45;;;32.10;43.50;;;;;;4980276;28;20034;-83
2022/08/12 11:42:44;;;;;;;1.45;1.20;;;32.10;43.60;;;;;;4996867;28;20037;-84
2022/08/12 11:45:10;;;;;;;2.15;1.52;;;32.20;44.40;;;;;;4997570;28;20477;-83
2022/08/12 11:47:37;;;;;;;1.83;1.45;;;32.20;43.80;;;;;;4996327;28;20603;-84
2022/08/12 11:50:04;;;;;;;2.47;1.55;;;32.20;44.00;;;;;;4996085;28;20080;-82
2022/08/12 11:52:30;;;;;;;2.00;1.40;;;32.30;44.00;;;;;;4996141;28;20096;-84
2022/08/12 11:54:55;;;;;;;1.67;1.33;;;32.30;44.20;;;;;;4996297;28;20443;-82
2022/08/12 11:57:21;;;;;;;1.58;1.40;;;32.30;44.30;;;;;;4979948;28;20036;-82
2022/08/12 11:59:47;;;;;;;1.70;1.40;;;32.30;44.50;;;;;;5013426;28;20033;-89
2022/08/12 12:02:13;;;;;;;1.65;1.30;;;32.30;44.30;;;;;;4997906;28;20088;-90
2022/08/12 12:04:38;;;;;;;1.50;1.40;;;32.40;44.40;;;;;;4981883;28;20053;-89
2022/08/12 12:07:04;;;;;;;1.50;1.38;;;32.40;44.30;;;;;;4982183;28;20429;-90
2022/08/12 12:09:30;;;;;;;1.88;1.52;;;32.40;44.20;;;;;;4966828;28;20038;-90
2022/08/12 12:11:56;;;;;;;1.90;1.48;;;32.40;44.20;;;;;;4997191;28;20075;-85
2022/08/12 12:14:22;;;;;;;1.70;1.30;;;32.40;44.10;;;;;;4980927;28;20058;-85
2022/08/12 12:16:47;;;;;;;1.38;1.27;;;32.50;44.10;;;;;;4996465;28;20467;-85
2022/08/12 12:19:13;;;;;;;1.58;1.40;;;32.50;44.00;;;;;;4996588;28;20045;-85
2022/08/12 12:21:39;;;;;;;1.45;1.35;;;32.50;43.90;;;;;;4997478;28;20040;-85
2022/08/12 12:24:05;;;;;;;1.90;1.48;;;32.50;43.80;;;;;;4979780;28;20121;-85
2022/08/12 12:26:31;;;;;;;1.40;1.20;;;32.50;43.70;;;;;;4996462;28;20076;-84
2022/08/12 12:28:56;;;;;;;1.30;1.20;;;32.50;43.60;;;;;;4979920;28;20038;-84
2022/08/12 12:31:23;;;;;;;1.63;1.52;;;32.50;43.60;;;;;;4996205;28;20050;-86
2022/08/12 12:33:52;;;;;;;1.45;1.35;;;32.50;43.60;;;;;;4981103;28;20459;-84
2022/08/12 12:36:17;;;;;;;1.30;1.20;;;32.50;43.50;;;;;;5013889;28;20057;-85
2022/08/12 12:38:43;;;;;;;1.48;1.38;;;32.50;43.60;;;;;;4980053;28;20073;-85
2022/08/12 12:41:09;;;;;;;1.30;1.20;;;32.60;43.60;;;;;;4963964;28;20546;-85
2022/08/12 12:43:34;;;;;;;1.58;1.48;;;32.60;43.60;;;;;;4980987;28;20113;-83
2022/08/12 12:46:01;;;;;;;1.45;1.25;;;32.60;43.50;;;;;;4980720;28;20092;-84
2022/08/12 12:48:26;;;;;;;1.50;1.40;;;32.60;43.40;;;;;;4980490;28;20540;-86
2022/08/12 12:53:41;;;;;;;1.85;1.40;;;32.60;43.30;;;;;;5017569;28;20034;-85
2022/08/12 12:56:14;;;;;;;1.50;1.40;;;32.60;43.10;;;;;;4999979;28;20040;-84
2022/08/12 12:58:41;;;;;;;2.13;1.50;;;32.70;43.10;;;;;;5017273;28;20037;-85
2022/08/12 13:01:07;;;;;;;2.15;1.60;;;32.70;43.10;;;;;;4983894;28;20034;-86
2022/08/12 13:03:34;;;;;;;1.48;1.38;;;32.70;43.00;;;;;;4983512;28;20030;-84
2022/08/12 13:06:03;;;;;;;1.30;1.20;;;32.70;42.90;;;;;;5000431;28;20037;-85
2022/08/12 13:08:31;;;;;;;1.73;1.35;;;32.70;42.80;;;;;;4983929;28;20513;-84
2022/08/12 13:11:04;;;;;;;1.58;1.27;;;32.70;42.70;;;;;;4983137;28;20029;-86
2022/08/12 13:13:35;;;;;;;1.30;1.20;;;32.70;42.50;;;;;;4984912;28;20459;-85
2022/08/12 13:16:02;;;;;;;1.40;1.30;;;32.70;42.40;;;;;;5000739;28;20033;-84
2022/08/12 13:18:35;;;;;;;1.70;1.30;;;32.70;42.30;;;;;;5016390;28;20478;-83
2022/08/12 13:21:08;;;;;;;1.42;1.33;;;32.70;42.30;;;;;;4983667;28;20041;-84
2022/08/12 13:23:34;;;;;;;1.65;1.38;;;32.70;42.20;;;;;;4982829;28;20036;-84
2022/08/12 13:26:00;;;;;;;1.73;1.33;;;32.70;42.20;;;;;;4998689;28;20112;-84
2022/08/12 13:28:29;;;;;;;1.75;1.50;;;32.70;42.10;;;;;;4998771;28;20078;-84
2022/08/12 13:30:58;;;;;;;1.40;1.30;;;32.70;42.20;;;;;;4998654;28;20117;-84
2022/08/12 13:33:26;;;;;;;1.50;1.40;;;32.80;42.40;;;;;;5016068;28;20088;-83
2022/08/12 13:35:53;;;;;;;1.55;1.40;;;32.80;42.40;;;;;;5016367;28;20025;-84
2022/08/12 13:38:22;;;;;;;2.03;1.50;;;32.80;42.40;;;;;;5017782;28;20032;-84
2022/08/12 13:40:51;;;;;;;1.50;1.40;;;32.80;42.40;;;;;;5016455;28;20109;-85
2022/08/12 13:43:17;;;;;;;1.30;1.20;;;32.80;42.40;;;;;;5016055;28;20022;-85
2022/08/12 13:45:42;;;;;;;1.90;1.55;;;32.80;42.30;;;;;;4982790;28;20084;-84
2022/08/12 13:48:08;;;;;;;1.60;1.50;;;32.80;42.20;;;;;;5016986;28;20371;-90
2022/08/12 13:50:40;;;;;;;2.20;1.55;;;32.80;42.20;;;;;;4984083;28;20045;-90
2022/08/12 13:53:18;;;;;;;1.95;1.70;;;32.80;42.10;;;;;;4985777;28;20108;-92
2022/08/12 13:55:48;;;;;;;1.58;1.40;;;32.80;42.00;;;;;;4984862;28;20042;-90
2022/08/12 13:58:16;;;;;;;1.50;1.40;;;32.80;42.10;;;;;;4983552;28;20030;-91
2022/08/12 14:00:51;;;;;;;1.80;1.40;;;32.80;42.10;;;;;;5000083;28;20113;-93
2022/08/12 14:03:18;;;;;;;2.38;1.45;;;32.80;42.10;;;;;;4983771;28;20030;-91
2022/08/12 14:05:44;;;;;;;2.25;1.45;;;32.80;42.00;;;;;;4984793;28;20026;-91
2022/08/12 14:08:13;;;;;;;2.28;1.55;;;32.80;42.00;;;;;;4968421;28;20045;-89
2022/08/12 14:10:52;;;;;;;1.90;1.58;;;32.80;41.90;;;;;;4968799;28;20173;-93
2022/08/12 14:13:23;;;;;;;1.90;1.45;;;32.80;41.80;;;;;;5019216;28;20037;-93
2022/08/12 14:15:54;;;;;;;2.25;1.60;;;32.80;41.70;;;;;;5000802;28;20083;-94
2022/08/12 14:18:24;;;;;;;1.98;1.48;;;32.90;41.70;;;;;;5002376;28;20061;-93
2022/08/12 14:21:02;;;;;;;1.38;1.27;;;32.90;41.60;;;;;;5000572;28;20084;-91
2022/08/12 14:23:31;;;;;;;2.35;1.52;;;32.80;41.70;;;;;;5016964;28;20451;-90
2022/08/12 14:26:00;;;;;;;1.40;1.30;;;32.80;41.80;;;;;;4983767;28;20039;-92
2022/08/12 14:28:32;;;;;;;2.47;1.50;;;32.90;41.70;;;;;;5018177;28;20026;-92
2022/08/12 14:31:03;;;;;;;2.15;1.60;;;32.80;41.60;;;;;;5001281;28;20057;-90
2022/08/12 14:33:32;;;;;;;1.63;1.30;;;32.90;41.70;;;;;;4984218;28;20034;-93
2022/08/12 14:35:59;;;;;;;1.63;1.50;;;32.80;41.50;;;;;;4985213;28;20045;-90
2022/08/12 14:38:28;;;;;;;2.80;1.40;;;32.80;41.40;;;;;;5000938;28;20030;-92
2022/08/12 14:41:01;;;;;;;1.42;1.33;;;32.90;41.30;;;;;;5001826;28;20041;-90
2022/08/12 14:43:32;;;;;;;;;;;32.80;41.20;;;;;;4969030;28;20034;-94
2022/08/12 14:46:01;;;;;;;1.50;1.40;;;32.90;41.50;;;;;;5017377;28;19917;-89
2022/08/12 14:48:30;;;;;;;1.40;1.30;;;32.90;41.40;;;;;;4982564;28;20125;-84